Time;durP1;ratioP1;P1;durP2;ratioP2;P2;SDS_P1;SDS_P2;PMS_P1;PMS_P2;Temp;Humidity;BMP_temperature;BMP_pressure;BME280_temperature;BME280_humidity;BME280_pressure;Samples;Min_cycle;Max_cycle;Signal;HPM_P1;HPM_P2
2023/10/23 00:00:54;;;;;;;4.10;0.77;;;;;;;13.26;100.00;98780.13;5068628;28;20088;-96
2023/10/23 00:03:21;;;;;;;3.83;1.23;;;;;;;13.56;100.00;98834.22;5068394;28;20045;-94
2023/10/23 00:05:52;;;;;;;3.67;0.70;;;;;;;13.17;100.00;98783.16;5047425;28;20042;-95
2023/10/23 00:08:18;;;;;;;2.50;0.93;;;;;;;13.23;100.00;98785.56;5087256;28;20049;-95
2023/10/23 00:10:45;;;;;;;2.60;1.00;;;;;;;13.06;100.00;98762.19;5088547;28;20049;-94
2023/10/23 00:13:13;;;;;;;6.97;1.25;;;;;;;13.57;100.00;98841.28;5069934;28;20044;-94
2023/10/23 00:15:42;;;;;;;4.13;0.77;;;;;;;13.16;100.00;98779.56;5069628;28;20410;-94
2023/10/23 00:18:08;;;;;;;2.72;0.80;;;;;;;13.14;100.00;98781.44;5069128;28;20049;-96
2023/10/23 00:20:39;;;;;;;2.65;1.13;;;;;;;13.05;100.00;98773.78;5103263;28;20071;-94
2023/10/23 00:23:05;;;;;;;3.15;1.40;;;;;;;13.25;100.00;98815.75;5068543;28;20037;-95
2023/10/23 00:25:31;;;;;;;4.07;1.00;;;;;;;13.13;100.00;98783.25;5060745;28;20045;-96
2023/10/23 00:27:58;;;;;;;2.78;1.10;;;;;;;13.21;100.00;98793.66;5094875;28;20029;-94
2023/10/23 00:30:31;;;;;;;5.78;1.58;;;;;;;13.01;100.00;98764.13;5051368;28;20057;-96
2023/10/23 00:32:58;;;;;;;3.13;1.42;;;;;;;13.53;100.00;98824.53;5050927;28;20069;-94
2023/10/23 00:35:24;;;;;;;2.65;1.15;;;;;;;13.38;100.00;98784.16;5067942;28;20049;-95
2023/10/23 00:37:52;;;;;;;4.05;1.02;;;;;;;13.74;100.00;98849.53;5069015;28;20041;-95
2023/10/23 00:40:18;;;;;;;2.22;1.40;;;;;;;13.57;100.00;98817.25;5068645;28;20044;-95
2023/10/23 00:42:44;;;;;;;4.32;1.20;;;;;;;13.39;100.00;98780.56;5068846;28;20049;-96
2023/10/23 00:45:11;;;;;;;2.58;1.20;;;;;;;13.40;100.00;98787.63;5069549;28;20029;-95
2023/10/23 00:47:37;;;;;;;4.13;1.13;;;;;;;13.46;100.00;98798.94;5069274;28;20045;-95
2023/10/23 00:50:04;;;;;;;2.58;1.20;;;;;;;13.39;100.00;98789.44;5068278;28;20049;-95
2023/10/23 00:52:31;;;;;;;4.10;1.27;;;;;;;13.31;100.00;98792.38;5067977;28;20061;-95
2023/10/23 00:54:59;;;;;;;1.95;1.00;;;;;;;13.29;100.00;98783.59;5068653;28;20067;-94
2023/10/23 00:57:28;;;;;;;2.63;1.30;;;;;;;13.28;100.00;98795.19;5068264;28;20045;-94
2023/10/23 00:59:55;;;;;;;2.70;1.25;;;;;;;13.50;100.00;98826.44;5068940;28;20493;-96
2023/10/23 01:02:21;;;;;;;3.10;1.05;;;;;;;13.50;100.00;98834.44;5070036;28;20139;-94
2023/10/23 01:04:51;;;;;;;2.65;1.30;;;;;;;13.70;100.00;98858.59;5069707;28;20056;-94
2023/10/23 01:07:17;;;;;;;;;;;;;;;13.75;100.00;98869.13;5070009;28;20051;-94
2023/10/23 01:09:46;;;;;;;4.78;1.10;;;;;;;13.18;100.00;98787.53;5102464;28;19980;-95
2023/10/23 01:12:14;;;;;;;2.22;0.93;;;;;;;13.34;100.00;98799.44;5070589;28;20413;-94
2023/10/23 01:14:40;;;;;;;4.43;1.30;;;;;;;13.54;100.00;98836.94;5069752;28;20037;-96
2023/10/23 01:17:11;;;;;;;;;;;;;;;13.62;100.00;98860.72;5070730;28;20049;-95
2023/10/23 01:19:45;;;;;;;2.72;1.20;;;;;;;13.06;100.00;98772.88;5070188;28;19927;-96
2023/10/23 01:22:14;;;;;;;5.13;1.63;;;;;;;13.02;100.00;98781.91;5050986;28;20112;-95
2023/10/23 01:24:43;;;;;;;4.00;1.20;;;;;;;13.48;100.00;98860.34;5049859;28;20050;-94
2023/10/23 01:27:12;;;;;;;4.38;1.42;;;;;;;13.37;100.00;98842.03;5050299;28;20046;-94
2023/10/23 01:29:38;;;;;;;4.45;1.42;;;;;;;13.00;100.00;98770.41;5066496;28;20212;-95
2023/10/23 01:32:06;;;;;;;6.32;1.55;;;;;;;12.99;100.00;98774.00;5056722;28;20049;-94
2023/10/23 01:34:33;;;;;;;3.55;1.23;;;;;;;13.02;100.00;98765.91;5049593;28;20033;-95
2023/10/23 01:36:59;;;;;;;6.13;1.40;;;;;;;13.03;100.00;98764.94;5046177;28;20033;-94
2023/10/23 01:39:25;;;;;;;2.75;1.27;;;;;;;13.10;100.00;98762.00;5029422;28;20045;-93
2023/10/23 01:41:52;;;;;;;2.13;1.20;;;;;;;13.44;100.00;98822.19;5027826;28;20053;-95
2023/10/23 01:44:19;;;;;;;2.70;1.30;;;;;;;13.08;100.00;98776.34;5029788;28;20066;-95
2023/10/23 01:46:46;;;;;;;4.30;1.30;;;;;;;13.51;100.00;98862.88;5048975;28;20141;-95
2023/10/23 01:49:12;;;;;;;5.25;1.20;;;;;;;12.97;100.00;98778.53;5047897;28;20117;-94
2023/10/23 01:51:39;;;;;;;5.70;1.48;;;;;;;12.86;100.00;98774.47;5047967;28;20048;-95
2023/10/23 01:54:05;;;;;;;4.57;1.33;;;;;;;12.85;100.00;98780.72;5047981;28;20422;-95
2023/10/23 01:56:32;;;;;;;4.90;1.35;;;;;;;12.77;100.00;98779.25;5048707;28;20404;-94
2023/10/23 01:59:01;;;;;;;4.20;1.48;;;;;;;13.26;100.00;98857.56;5048661;28;20395;-94
2023/10/23 02:01:29;;;;;;;2.97;1.10;;;;;;;12.83;100.00;98803.91;5046115;28;20065;-94
2023/10/23 02:03:56;;;;;;;4.60;0.80;;;;;;;12.66;100.00;98769.81;5033615;28;20046;-94
2023/10/23 02:06:22;;;;;;;2.47;0.82;;;;;;;12.57;100.00;98774.63;5066251;28;20140;-95
2023/10/23 02:08:49;;;;;;;2.60;1.15;;;;;;;12.65;100.00;98792.09;5049719;28;20121;-94
2023/10/23 02:11:16;;;;;;;2.45;0.85;;;;;;;12.53;100.00;98765.84;5050874;28;20046;-93
2023/10/23 02:13:43;;;;;;;3.80;1.00;;;;;;;12.82;100.00;98828.00;5050571;28;20503;-95
2023/10/23 02:16:12;;;;;;;3.95;1.13;;;;;;;13.05;100.00;98872.56;5050818;28;20055;-93
2023/10/23 02:18:41;;;;;;;2.38;1.23;;;;;;;12.53;100.00;98793.41;5051099;28;20072;-94
2023/10/23 02:21:07;;;;;;;2.65;0.90;;;;;;;12.49;100.00;98790.88;5050669;28;20050;-94
2023/10/23 02:23:34;;;;;;;2.00;0.85;;;;;;;12.66;100.00;98820.50;5052302;28;20053;-95
2023/10/23 02:26:02;;;;;;;5.65;1.30;;;;;;;12.63;100.00;98809.09;5051596;28;20053;-95
2023/10/23 02:28:32;;;;;;;3.80;1.20;;;;;;;12.40;100.00;98777.88;5050976;28;20187;-95
2023/10/23 02:31:04;;;;;;;9.68;1.38;;;;;;;12.43;100.00;98789.31;5050980;28;20052;-95
2023/10/23 02:33:32;;;;;;;3.83;0.90;;;;;;;12.65;100.00;98825.91;5052470;28;20049;-95
2023/10/23 02:36:08;;;;;;;1.70;0.82;;;;;;;12.74;100.00;98830.94;5051997;28;20045;-93
2023/10/23 02:38:35;;;;;;;4.30;1.25;;;;;;;12.46;100.00;98791.88;5051589;28;20049;-94
2023/10/23 02:41:09;;;;;;;2.47;1.27;;;;;;;12.55;100.00;98806.69;5052048;28;20049;-96
2023/10/23 02:43:37;;;;;;;2.42;1.05;;;;;;;12.31;100.00;98784.38;5048332;28;20041;-95
2023/10/23 02:46:04;;;;;;;1.52;0.93;;;;;;;12.34;100.00;98797.63;5031759;28;20053;-95
2023/10/23 02:48:31;;;;;;;6.00;1.58;;;;;;;12.93;100.00;98871.19;5030732;28;20360;-93
2023/10/23 02:50:58;;;;;;;3.63;0.90;;;;;;;12.59;100.00;98811.00;5030487;28;20053;-95
2023/10/23 02:53:30;;;;;;;5.32;1.55;;;;;;;12.73;100.00;98802.53;5030954;28;20046;-95
2023/10/23 02:55:59;;;;;;;2.50;1.10;;;;;;;12.73;100.00;98814.06;5030790;28;20046;-94
2023/10/23 02:58:27;;;;;;;3.35;1.02;;;;;;;13.10;100.00;98855.44;5030928;28;20088;-95
2023/10/23 03:00:54;;;;;;;4.97;1.20;;;;;;;12.66;100.00;98791.16;5029561;28;20042;-95
2023/10/23 03:03:20;;;;;;;5.72;1.65;;;;;;;13.03;100.00;98885.94;5031450;28;20053;-95
2023/10/23 03:05:47;;;;;;;4.90;1.13;;;;;;;12.70;100.00;98837.28;5031309;28;20057;-94
2023/10/23 03:08:14;;;;;;;1.88;1.30;;;;;;;12.50;100.00;98817.50;5033317;28;20109;-94
2023/10/23 03:10:42;;;;;;;1.92;0.93;;;;;;;12.67;100.00;98830.28;5040107;28;20037;-93
2023/10/23 03:13:09;;;;;;;2.53;1.38;;;;;;;12.35;100.00;98787.84;5051856;28;20049;-95
2023/10/23 03:15:36;;;;;;;1.95;1.15;;;;;;;12.36;100.00;98803.78;5051027;28;20056;-95
2023/10/23 03:18:05;;;;;;;3.67;1.60;;;;;;;12.49;100.00;98810.44;5052067;28;20089;-93
2023/10/23 03:20:31;;;;;;;4.20;1.45;;;;;;;12.45;100.00;98799.94;5051579;28;20049;-94
2023/10/23 03:22:58;;;;;;;3.10;1.90;;;;;;;12.44;100.00;98799.03;5051481;28;20135;-94
2023/10/23 03:25:25;;;;;;;3.67;1.40;;;;;;;12.43;100.00;98802.66;5052002;28;20047;-93
2023/10/23 03:27:54;;;;;;;8.05;1.50;;;;;;;12.90;100.00;98876.63;5052227;28;20046;-94
2023/10/23 03:30:21;;;;;;;5.38;1.98;;;;;;;12.52;100.00;98799.66;5052677;28;20064;-95
2023/10/23 03:32:48;;;;;;;6.40;1.70;;;;;;;12.49;100.00;98805.13;5052745;28;20053;-93
2023/10/23 03:35:18;;;;;;;4.07;1.40;;;;;;;12.49;100.00;98813.13;5052759;28;20075;-94
2023/10/23 03:37:44;;;;;;;3.15;1.50;;;;;;;12.56;100.00;98802.25;5052752;28;20113;-94
2023/10/23 03:40:14;;;;;;;2.70;1.55;;;;;;;12.50;100.00;98821.97;5051141;28;20045;-93
2023/10/23 03:42:41;;;;;;;2.47;1.27;;;;;;;12.47;100.00;98814.06;5051537;28;20045;-94
2023/10/23 03:45:13;;;;;;;3.30;1.10;;;;;;;12.59;100.00;98819.00;5052887;28;20061;-94
2023/10/23 03:47:40;;;;;;;4.25;1.30;;;;;;;13.02;100.00;98886.88;5051813;28;20061;-94
2023/10/23 03:50:09;;;;;;;;;;;;;;;12.98;100.00;98900.41;5052664;28;20052;-94
2023/10/23 03:52:35;;;;;;;2.30;1.48;;;;;;;12.46;100.00;98812.34;5084684;28;19925;-94
2023/10/23 03:55:01;;;;;;;4.68;1.15;;;;;;;12.37;100.00;98805.53;5051242;28;20061;-94
2023/10/23 03:57:27;;;;;;;5.13;1.33;;;;;;;12.41;100.00;98799.16;5051075;28;20080;-94
2023/10/23 03:59:54;;;;;;;2.63;1.27;;;;;;;12.48;100.00;98795.34;5050817;28;20056;-95
2023/10/23 04:02:22;;;;;;;6.38;1.40;;;;;;;12.58;100.00;98805.69;5051576;28;20049;-94
2023/10/23 04:04:48;;;;;;;6.20;1.17;;;;;;;12.58;100.00;98805.69;5067276;28;20029;-94
2023/10/23 04:07:14;;;;;;;3.70;1.17;;;;;;;12.51;100.00;98807.69;5051517;28;20049;-95
2023/10/23 04:09:41;;;;;;;2.65;1.10;;;;;;;12.43;100.00;98801.78;5051122;28;20041;-94
2023/10/23 04:12:07;;;;;;;4.72;1.40;;;;;;;12.35;100.00;98807.38;5049797;28;20045;-95
2023/10/23 04:14:35;;;;;;;3.17;1.20;;;;;;;12.28;100.00;98816.50;5051313;28;20057;-94
2023/10/23 04:17:02;;;;;;;3.92;1.30;;;;;;;12.18;100.00;98809.72;5051270;28;20048;-95
2023/10/23 04:19:31;;;;;;;3.22;1.10;;;;;;;12.56;100.00;98876.94;5051829;28;20056;-94
2023/10/23 04:21:58;;;;;;;3.42;1.23;;;;;;;12.06;100.00;98811.00;5052851;28;20053;-94
2023/10/23 04:24:24;;;;;;;3.05;1.52;;;;;;;12.02;100.00;98820.88;5052312;28;20041;-95
2023/10/23 04:26:51;;;;;;;3.63;1.52;;;;;;;11.93;100.00;98821.19;5051891;28;20045;-94
2023/10/23 04:29:20;;;;;;;2.22;1.30;;;;;;;12.10;100.00;98860.59;5051882;28;20045;-95
2023/10/23 04:31:51;;;;;;;3.10;1.35;;;;;;;11.90;100.00;98813.28;5052288;28;20072;-94
2023/10/23 04:34:18;;;;;;;2.67;2.30;;;;;;;11.90;100.00;98823.94;5052053;28;20068;-94
2023/10/23 04:36:46;;;;;;;3.65;1.30;;;;;;;12.38;100.00;98900.59;5050959;28;20417;-95
2023/10/23 04:39:13;;;;;;;2.83;1.20;;;;;;;11.79;100.00;98802.91;5084163;28;20041;-94
2023/10/23 04:41:40;;;;;;;2.72;1.05;;;;;;;11.74;100.00;98801.34;5051843;28;20042;-95
2023/10/23 04:44:07;;;;;;;1.35;0.90;;;;;;;12.25;100.00;98897.47;5050884;28;20049;-94
2023/10/23 04:46:34;;;;;;;4.43;1.33;;;;;;;11.72;100.00;98806.69;5051452;28;20088;-93
2023/10/23 04:49:01;;;;;;;2.00;0.98;;;;;;;11.72;100.00;98815.56;5050549;28;20045;-95
2023/10/23 04:51:27;;;;;;;2.55;1.00;;;;;;;11.75;100.00;98809.25;5049823;28;20034;-93
2023/10/23 04:53:55;;;;;;;1.95;0.90;;;;;;;11.69;100.00;98807.69;5047669;28;20041;-95
2023/10/23 04:56:21;;;;;;;2.75;1.08;;;;;;;11.95;100.00;98855.75;5046071;28;20046;-95
2023/10/23 04:58:50;;;;;;;2.47;1.05;;;;;;;11.85;100.00;98848.03;5047770;28;20045;-95
2023/10/23 05:01:16;;;;;;;1.85;0.90;;;;;;;11.56;100.00;98808.97;5077916;28;20450;-95
2023/10/23 05:03:42;;;;;;;2.97;1.30;;;;;;;11.55;100.00;98814.34;5044128;28;20042;-95
2023/10/23 05:06:08;;;;;;;3.15;0.85;;;;;;;11.71;100.00;98840.47;5046995;28;20054;-94
2023/10/23 05:08:35;;;;;;;2.10;1.20;;;;;;;11.53;100.00;98817.03;5045618;28;20050;-96
2023/10/23 05:11:09;;;;;;;2.85;0.82;;;;;;;12.01;100.00;98907.06;5040454;28;20041;-96
2023/10/23 05:13:35;;;;;;;2.55;1.20;;;;;;;11.46;100.00;98808.38;5074114;28;20162;-96
2023/10/23 05:16:05;;;;;;;1.75;0.85;;;;;;;11.46;100.00;98813.69;5051374;28;20499;-94
2023/10/23 05:18:32;;;;;;;1.85;1.20;;;;;;;12.02;100.00;98907.97;5040709;28;20049;-96
2023/10/23 05:21:05;;;;;;;2.63;0.80;;;;;;;11.46;100.00;98832.34;5041966;28;20107;-95
2023/10/23 05:23:31;;;;;;;2.63;0.93;;;;;;;11.60;100.00;98855.91;5040054;28;20563;-94
2023/10/23 05:25:57;;;;;;;1.20;0.68;;;;;;;11.01;100.00;98834.53;5041242;28;20080;-94
2023/10/23 05:28:25;;;;;;;2.03;1.02;;;;;;;11.11;100.00;98830.69;5041740;28;20041;-95
2023/10/23 05:30:51;;;;;;;2.58;0.75;;;;;;;11.14;100.00;98833.25;5045111;28;20042;-95
2023/10/23 05:33:19;;;;;;;1.50;0.82;;;;;;;11.14;100.00;98830.59;5046184;28;20041;-96
2023/10/23 05:35:45;;;;;;;1.13;0.60;;;;;;;11.42;100.00;98875.06;5046858;28;20075;-94
2023/10/23 05:38:12;;;;;;;2.70;0.80;;;;;;;11.15;100.00;98840.34;5044415;28;20415;-94
2023/10/23 05:40:38;;;;;;;2.10;0.68;;;;;;;11.18;100.00;98842.91;5048056;28;20497;-96
2023/10/23 05:43:04;;;;;;;2.85;0.85;;;;;;;11.21;100.00;98842.84;5047510;28;20075;-96
2023/10/23 05:45:32;;;;;;;1.92;1.00;;;;;;;11.28;100.00;98841.75;5047282;28;20095;-94
2023/10/23 05:47:58;;;;;;;1.27;0.80;;;;;;;11.35;100.00;98854.88;5047855;28;20049;-95
2023/10/23 05:50:24;;;;;;;2.33;0.88;;;;;;;11.36;100.00;98843.28;5046620;28;20045;-95
2023/10/23 05:52:50;;;;;;;3.47;0.90;;;;;;;11.37;100.00;98840.59;5046835;28;20052;-95
2023/10/23 05:55:17;;;;;;;2.00;1.05;;;;;;;11.30;100.00;98826.59;5047224;28;20045;-94
2023/10/23 05:57:43;;;;;;;1.83;1.00;;;;;;;11.44;100.00;98844.81;5047940;28;20049;-96
2023/10/23 06:00:10;;;;;;;2.58;0.88;;;;;;;11.46;100.00;98836.78;5046874;28;20071;-95
2023/10/23 06:02:38;;;;;;;2.22;0.95;;;;;;;11.50;100.00;98841.97;5063446;28;20049;-94
2023/10/23 06:05:05;;;;;;;3.53;1.23;;;;;;;11.52;100.00;98855.25;5046529;28;20049;-94
2023/10/23 06:07:31;;;;;;;4.95;1.85;;;;;;;11.57;100.00;98861.31;5046426;28;20132;-95
2023/10/23 06:09:58;;;;;;;3.42;1.25;;;;;;;11.68;100.00;98863.66;5079476;28;20057;-95
2023/10/23 06:12:24;;;;;;;4.95;1.58;;;;;;;11.65;100.00;98867.28;5046253;28;20052;-94
2023/10/23 06:14:51;;;;;;;2.47;1.50;;;;;;;11.73;100.00;98877.69;5046531;28;20048;-95
2023/10/23 06:17:17;;;;;;;6.22;1.83;;;;;;;11.78;100.00;98881.13;5046947;28;20045;-95
2023/10/23 06:19:45;;;;;;;2.35;1.30;;;;;;;11.92;100.00;98892.25;5046772;28;20502;-94
2023/10/23 06:22:14;;;;;;;2.03;1.10;;;;;;;11.91;100.00;98869.19;5046572;28;20133;-95
2023/10/23 06:24:40;;;;;;;3.08;1.60;;;;;;;12.08;100.00;98895.31;5046020;28;20080;-95
2023/10/23 06:27:07;;;;;;;2.35;1.38;;;;;;;12.02;100.00;98876.00;5046140;28;20144;-96
2023/10/23 06:29:33;;;;;;;5.97;1.23;;;;;;;12.20;100.00;98899.38;5046353;28;20053;-96
2023/10/23 06:31:59;;;;;;;2.47;1.48;;;;;;;12.16;100.00;98878.22;5046056;28;20045;-95
2023/10/23 06:34:25;;;;;;;3.38;1.52;;;;;;;12.51;100.00;98930.41;5046411;28;20049;-95
2023/10/23 06:36:53;;;;;;;2.72;1.50;;;;;;;12.26;100.00;98880.53;5050277;28;20092;-95
2023/10/23 06:39:19;;;;;;;3.55;1.95;;;;;;;12.26;100.00;98877.00;5051108;28;20056;-96
2023/10/23 06:41:46;;;;;;;3.85;2.17;;;;;;;12.35;100.00;98889.16;5050653;28;20117;-96
2023/10/23 06:44:13;;;;;;;3.60;2.03;;;;;;;12.68;100.00;98932.53;5051004;28;20065;-96
2023/10/23 06:46:40;;;;;;;4.30;2.30;;;;;;;12.92;100.00;98974.44;5051516;28;20042;-95
2023/10/23 06:49:06;;;;;;;4.03;2.33;;;;;;;12.63;100.00;98919.34;5052014;28;20050;-96
2023/10/23 06:51:33;;;;;;;3.92;2.00;;;;;;;12.64;100.00;98915.78;5052875;28;20080;-95
2023/10/23 06:54:01;;;;;;;3.35;2.10;;;;;;;13.15;100.00;98973.63;5053022;28;20045;-96
2023/10/23 06:56:28;;;;;;;5.63;2.35;;;;;;;12.71;100.00;98892.41;5070441;28;20080;-95
2023/10/23 06:58:57;;;;;;;5.03;2.13;;;;;;;12.80;100.00;98894.78;5054516;28;20076;-95
2023/10/23 07:01:24;;;;;;;5.70;2.80;;;;;;;12.85;100.00;98892.81;5054202;28;20029;-95
2023/10/23 07:03:50;;;;;;;6.03;2.65;;;;;;;13.07;100.00;98918.75;5053515;28;20056;-95
2023/10/23 07:06:19;;;;;;;8.65;3.10;;;;;;;13.05;100.00;98896.56;5050036;28;20075;-95
2023/10/23 07:08:50;;;;;;;6.03;2.92;;;;;;;13.08;100.00;98897.34;5052373;28;20053;-95
2023/10/23 07:11:18;;;;;;;5.93;2.90;;;;;;;13.17;100.00;98893.47;5050908;28;20057;-95
2023/10/23 07:13:45;;;;;;;5.85;3.00;;;;;;;13.35;100.00;98908.88;5054411;28;20372;-94
2023/10/23 07:16:12;;;;;;;5.13;1.83;;;;;;;13.79;100.00;98984.78;5054647;28;20061;-94
2023/10/23 07:18:43;;;;;;;7.32;3.05;;;;;;;13.56;100.00;98949.97;5054151;28;20041;-94
2023/10/23 07:21:10;;;;;;;7.43;3.65;;;;;;;13.67;100.00;98954.91;5052142;28;20045;-94
2023/10/23 07:23:39;;;;;;;6.45;3.20;;;;;;;13.60;100.00;98915.09;5052993;28;20046;-94
2023/10/23 07:26:08;;;;;;;6.95;3.60;;;;;;;13.88;100.00;98917.63;5053762;28;20041;-94
2023/10/23 07:28:41;;;;;;;5.32;2.20;;;;;;;14.21;100.00;98957.38;5053679;28;20041;-95
2023/10/23 07:31:08;;;;;;;7.45;2.78;;;;;;;14.24;100.00;98935.84;5053223;28;20042;-94
2023/10/23 07:33:35;;;;;;;5.97;2.97;;;;;;;14.54;100.00;98953.34;5053228;28;20061;-95
2023/10/23 07:36:03;;;;;;;11.98;3.97;;;;;;;14.41;100.00;98905.75;5050434;28;20076;-96
2023/10/23 07:38:30;;;;;;;8.93;4.78;;;;;;;14.50;100.00;98908.06;5053325;28;20049;-95
2023/10/23 07:40:58;;;;;;;10.55;4.88;;;;;;;14.65;100.00;98919.97;5052412;28;20046;-96
2023/10/23 07:43:25;;;;;;;10.07;4.60;;;;;;;14.99;100.00;98956.94;5052076;28;20502;-96
2023/10/23 07:45:53;;;;;;;7.90;4.35;;;;;;;14.79;100.00;98901.53;5048697;28;20041;-94
2023/10/23 07:48:22;;;;;;;11.95;6.55;;;;;;;14.96;100.00;98911.50;5049604;28;20051;-95
2023/10/23 07:50:49;;;;;;;8.65;5.05;;;;;;;15.07;100.00;98921.78;5049896;28;20061;-95
2023/10/23 07:53:18;;;;;;;7.57;4.28;;;;;;;15.25;100.00;98930.84;5053201;28;20060;-93
2023/10/23 07:55:45;;;;;;;6.53;3.28;;;;;;;15.35;100.00;98927.69;5052285;28;20077;-94
2023/10/23 07:58:17;;;;;;;4.30;2.70;;;;;;;15.78;100.00;98974.03;5051997;28;20495;-95
2023/10/23 08:00:43;;;;;;;5.28;3.10;;;;;;;15.76;100.00;99007.22;5052930;28;20143;-94
2023/10/23 08:03:14;;;;;;;7.38;3.17;;;;;;;15.56;100.00;98946.44;5050181;28;20099;-94
2023/10/23 08:05:40;;;;;;;6.55;2.22;;;;;;;15.44;100.00;98931.78;5048936;28;20049;-95
2023/10/23 08:08:06;;;;;;;5.60;2.40;;;;;;;15.06;100.00;98917.38;5049605;28;20049;-94
2023/10/23 08:10:32;;;;;;;6.63;2.28;;;;;;;15.46;100.00;98947.75;5046596;28;20085;-95
2023/10/23 08:12:59;;;;;;;3.60;2.13;;;;;;;15.71;100.00;99001.16;5046230;28;20099;-95
2023/10/23 08:15:25;;;;;;;2.30;1.52;;;;;;;15.27;100.00;98915.56;5047454;28;20053;-93
2023/10/23 08:17:51;;;;;;;5.15;1.80;;;;;;;14.85;100.00;98903.94;5045310;28;20092;-93
2023/10/23 08:20:19;;;;;;;5.97;1.63;;;;;;;15.20;100.00;98918.50;5029505;28;20049;-95
2023/10/23 08:22:49;;;;;;;3.92;1.45;;;;;;;15.36;100.00;98917.84;5029623;28;20054;-95
2023/10/23 08:25:15;;;;;;;4.15;1.63;;;;;;;15.28;100.00;98918.16;5043959;28;20042;-94
2023/10/23 08:27:42;;;;;;;3.65;1.90;;;;;;;15.56;100.00;98924.97;5049238;28;20046;-96
2023/10/23 08:30:09;;;;;;;5.65;1.38;;;;;;;15.64;100.00;98946.09;5050439;28;20049;-95
2023/10/23 08:32:35;;;;;;;1.83;0.98;;;;;;;15.14;100.00;98915.22;5047689;28;20053;-94
2023/10/23 08:35:02;;;;;;;4.85;1.60;;;;;;;15.64;100.00;98922.84;5045785;28;20041;-95
2023/10/23 08:37:30;;;;;;;4.13;1.25;;;;;;;15.34;100.00;98915.22;5043790;28;20060;-95
2023/10/23 08:39:56;;;;;;;1.90;1.08;;;;;;;15.28;100.00;98910.13;5048156;28;20049;-95
2023/10/23 08:42:23;;;;;;;4.03;1.13;;;;;;;15.61;100.00;98909.53;5047800;28;20054;-94
2023/10/23 08:44:50;;;;;;;3.17;1.00;;;;;;;15.82;100.00;98900.56;5047884;28;20041;-94
2023/10/23 08:47:17;;;;;;;3.47;1.15;;;;;;;15.77;100.00;98920.50;5047001;28;20411;-95
2023/10/23 08:49:43;;;;;;;3.78;1.10;;;;;;;16.52;100.00;99005.50;5042268;28;20068;-95
2023/10/23 08:52:11;;;;;;;4.93;1.27;;;;;;;16.12;100.00;98934.94;5043433;28;20064;-94
2023/10/23 08:54:40;;;;;;;4.60;1.42;;;;;;;16.35;100.00;98922.22;5061799;28;20484;-95
2023/10/23 08:57:07;;;;;;;8.52;1.02;;;;;;;16.39;100.00;98916.66;5046702;28;20158;-93
2023/10/23 08:59:34;;;;;;;7.15;1.05;;;;;;;16.82;100.00;98921.75;5063917;28;20049;-94
2023/10/23 09:02:00;;;;;;;2.47;1.10;;;;;;;17.06;100.00;98927.69;5042895;28;20049;-95
2023/10/23 09:04:26;;;;;;;2.25;0.73;;;;;;;17.50;100.00;98988.16;5044985;28;20148;-95
2023/10/23 09:06:52;;;;;;;1.63;0.95;;;;;;;17.27;100.00;98939.16;5042299;28;20113;-95
2023/10/23 09:09:20;;;;;;;2.60;0.60;;;;;;;17.51;100.00;98926.25;5044720;28;20059;-94
2023/10/23 09:11:49;;;;;;;1.58;0.60;;;;;;;17.91;100.00;98982.47;5040083;28;20072;-95
2023/10/23 09:14:24;;;;;;;3.25;0.73;;;;;;;17.70;100.00;98912.72;5066417;28;20070;-95
2023/10/23 09:16:51;;;;;;;1.45;0.70;;;;;;;17.99;100.00;98962.25;5054265;28;20514;-95
2023/10/23 09:19:24;;;;;;;1.98;0.68;;;;;;;18.25;100.00;98971.59;5057201;28;20132;-95
2023/10/23 09:21:53;;;;;;;3.35;0.60;;;;;;;18.07;100.00;98916.13;5041174;28;20045;-95
2023/10/23 09:24:21;;;;;;;1.45;0.60;;;;;;;18.17;100.00;98928.13;5043004;28;20061;-94
2023/10/23 09:26:49;;;;;;;2.05;0.55;;;;;;;18.38;100.00;98949.38;5053057;28;20499;-94
2023/10/23 09:29:15;;;;;;;4.28;0.68;;;;;;;18.44;100.00;98922.13;5040626;28;20045;-95
2023/10/23 09:31:41;;;;;;;1.73;0.70;;;;;;;18.73;100.00;98971.63;5040764;28;20108;-95
2023/10/23 09:34:08;;;;;;;3.38;0.73;;;;;;;19.11;100.00;98940.75;5056538;28;20045;-94
2023/10/23 09:36:34;;;;;;;2.25;0.75;;;;;;;19.38;100.00;98981.38;5045982;28;20502;-96
2023/10/23 09:39:00;;;;;;;2.25;1.27;;;;;;;19.23;100.00;98922.00;5074729;28;20042;-94
2023/10/23 09:41:27;;;;;;;5.43;1.23;;;;;;;19.24;100.00;98915.66;5036933;28;20050;-94
2023/10/23 09:43:57;;;;;;;4.30;1.15;;;;;;;19.56;100.00;98953.31;5038984;28;20061;-94
2023/10/23 09:46:24;;;;;;;4.93;1.30;;;;;;;19.70;100.00;98968.66;5037558;28;20061;-94
2023/10/23 09:48:52;;;;;;;2.47;1.05;;;;;;;19.00;100.00;98971.03;5039651;28;20034;-94
2023/10/23 09:51:21;;;;;;;2.55;1.08;;;;;;;19.20;100.00;98932.13;5040622;28;20045;-95
2023/10/23 09:53:48;;;;;;;3.85;1.00;;;;;;;19.44;100.00;98935.16;5037761;28;20042;-95
2023/10/23 09:56:19;;;;;;;5.65;0.90;;;;;;;19.39;100.00;98902.22;5039226;28;20037;-95
2023/10/23 09:58:53;;;;;;;5.40;0.98;;;;;;;19.35;100.00;98879.09;5040553;28;20064;-94
2023/10/23 10:01:26;;;;;;;2.63;0.73;;;;;;;19.69;100.00;98912.91;5033275;28;20372;-95
2023/10/23 10:04:02;;;;;;;1.98;1.20;;;;;;;19.37;100.00;98917.63;5034761;28;20061;-95
2023/10/23 10:06:36;;;;;;;3.50;1.05;;;;;;;19.55;100.00;98913.78;5040648;28;20499;-96
2023/10/23 10:09:08;;;;;;;3.67;0.70;;;;;;;19.78;100.00;98911.50;5042164;28;20052;-94
2023/10/23 10:11:34;;;;;;;2.05;1.02;;;;;;;19.97;100.00;98930.97;5035311;28;20067;-93
2023/10/23 10:14:01;;;;;;;2.60;0.95;;;;;;;19.64;100.00;98898.84;5037777;28;20071;-96
2023/10/23 10:16:29;;;;;;;5.97;0.80;;;;;;;19.19;100.00;98880.03;5038960;28;20051;-96
2023/10/23 10:18:55;;;;;;;2.70;1.52;;;;;;;19.23;100.00;98891.47;5040835;28;20053;-94
2023/10/23 10:21:23;;;;;;;3.60;1.50;;;;;;;19.34;100.00;98889.00;5038483;28;20042;-95
2023/10/23 10:23:51;;;;;;;3.35;0.70;;;;;;;19.53;100.00;98898.66;5039524;28;20052;-94
2023/10/23 10:26:18;;;;;;;3.08;0.98;;;;;;;19.43;100.00;98914.53;5039368;28;20049;-95
2023/10/23 10:28:51;;;;;;;1.80;1.05;;;;;;;19.50;100.00;98887.09;5040139;28;20116;-95
2023/10/23 10:31:17;;;;;;;1.27;0.88;;;;;;;19.93;100.00;98945.66;5036698;28;20042;-94
2023/10/23 10:33:44;;;;;;;2.63;0.80;;;;;;;19.89;100.00;98927.91;5048136;28;20049;-95
2023/10/23 10:36:16;;;;;;;3.85;0.88;;;;;;;19.99;100.00;98947.09;5023138;28;20056;-96
2023/10/23 10:38:43;;;;;;;3.20;0.80;;;;;;;19.65;100.00;98906.00;5025364;28;20048;-95
2023/10/23 10:41:14;;;;;;;4.35;0.98;;;;;;;19.82;100.00;98905.84;5018252;28;20558;-95
2023/10/23 10:43:42;;;;;;;4.75;0.82;;;;;;;20.03;100.00;98927.91;5057973;28;20133;-93
2023/10/23 10:46:20;;;;;;;2.60;0.80;;;;;;;20.12;100.00;98915.66;5018960;28;20125;-94
2023/10/23 10:48:48;;;;;;;2.78;0.95;;;;;;;20.33;100.00;98928.75;5019974;28;20054;-93
2023/10/23 10:51:16;;;;;;;2.30;0.82;;;;;;;20.16;100.00;98886.63;5020151;28;20080;-93
2023/10/23 10:53:42;;;;;;;4.35;1.15;;;;;;;20.31;100.00;98915.34;5017260;28;20049;-93
2023/10/23 10:56:09;;;;;;;5.03;1.10;;;;;;;19.82;100.00;98876.16;5019630;28;20391;-95
2023/10/23 10:58:36;;;;;;;4.38;1.35;;;;;;;19.94;100.00;98881.75;5021018;28;20069;-95
2023/10/23 11:01:02;;;;;;;5.57;1.20;;;;;;;20.22;100.00;98891.63;5017059;28;20068;-95
2023/10/23 11:03:30;;;;;;;1.83;0.90;;;;;;;20.54;100.00;98919.25;5013313;28;20050;-95
2023/10/23 11:05:57;;;;;;;3.17;1.10;;;;;;;20.52;100.00;98877.97;5046529;28;20579;-96
2023/10/23 11:08:23;;;;;;;3.72;1.13;;;;;;;20.79;100.00;98896.03;5016079;28;20050;-96
2023/10/23 11:10:49;;;;;;;3.05;1.02;;;;;;;21.08;100.00;98924.69;5033948;28;20045;-96
2023/10/23 11:13:15;;;;;;;4.68;1.17;;;;;;;21.06;100.00;98888.75;5033748;28;20553;-96
2023/10/23 11:15:41;;;;;;;2.58;1.33;;;;;;;20.98;100.00;98866.78;5034837;28;20037;-96
2023/10/23 11:18:07;;;;;;;4.72;1.10;;;;;;;21.24;100.00;98902.84;5034035;28;20076;-95
2023/10/23 11:20:35;;;;;;;5.75;1.00;;;;;;;21.13;99.45;98872.97;5041648;28;20061;-95
2023/10/23 11:23:04;;;;;;;3.45;1.05;;;;;;;21.26;100.00;98913.56;5035945;28;20041;-96
2023/10/23 11:25:30;;;;;;;2.13;0.95;;;;;;;21.05;97.96;98864.53;5059319;28;20507;-95
2023/10/23 11:27:56;;;;;;;4.15;0.85;;;;;;;20.58;100.00;98941.53;5023592;28;20050;-95